This is the latest recevied weather packets stored in our database for station/object HB9SZU-6. If no packets are shown the sender has not sent any weather packets the latest 10 day(s).
| Time | Temp. | Humidity | Pressure | Rain* | Wind** | Luminosity | Snow |
|---|---|---|---|---|---|---|---|
| 1777889891 | 20.56° C | 48% | 1022.9 hPa | 0 mm | - | - | - |
| 1777888091 | 19.44° C | 52% | 1023 hPa | 0 mm | - | - | - |
| 1777887191 | 18.89° C | 53% | 1023.1 hPa | 0 mm | - | - | - |
| 1777886291 | 18.33° C | 54% | 1023.2 hPa | 0 mm | - | - | - |
| 1777885390 | 17.78° C | 54% | 1023.1 hPa | 0 mm | - | - | - |
| 1777883591 | 17.22° C | 55% | 1023.5 hPa | 0 mm | - | - | - |
| 1777882690 | 16.67° C | 56% | 1023.4 hPa | 0 mm | - | - | - |
| 1777881790 | 16.67° C | 56% | 1023.4 hPa | 0 mm | - | - | - |
| 1777879990 | 16.11° C | 58% | 1023.3 hPa | 0 mm | - | - | - |
| 1777879090 | 15.56° C | 58% | 1023.2 hPa | 0 mm | - | - | - |
| 1777878190 | 15° C | 58% | 1023.6 hPa | 0 mm | - | - | - |
| 1777877291 | 14.44° C | 57% | 1023.7 hPa | 0 mm | - | - | - |
| 1777876390 | 14.44° C | 57% | 1023.5 hPa | 0 mm | - | - | - |
| 1777875491 | 14.44° C | 57% | 1023.2 hPa | 0 mm | - | - | - |
| 1777874591 | 14.44° C | 57% | 1023.3 hPa | 0 mm | - | - | - |
| 1777873690 | 14.44° C | 57% | 1023 hPa | 0 mm | - | - | - |
| 1777872791 | 14.44° C | 56% | 1022.9 hPa | 0 mm | - | - | - |
| 1777871890 | 13.89° C | 56% | 1022.7 hPa | 0 mm | - | - | - |
| 1777870991 | 13.89° C | 56% | 1022.7 hPa | 0 mm | - | - | - |
| 1777870090 | 13.89° C | 56% | 1022.3 hPa | 0 mm | - | - | - |
| 1777869190 | 13.89° C | 55% | 1022.3 hPa | 0 mm | - | - | - |
| 1777868290 | 14.44° C | 55% | 1022.4 hPa | 0 mm | - | - | - |
| 1777865591 | 15° C | 53% | 1022.5 hPa | 0 mm | - | - | - |
| 1777864691 | 15° C | 53% | 1022.4 hPa | 0 mm | - | - | - |
| 1777838591 | 20° C | 46% | 1022.3 hPa | 0 mm | - | - | - |
* Rain latest hour (hover to see other rain measurements)
** Current wind speed in m/s (hover to see current wind gust speed)